Olney, TX (76374)

4:17 PM CDT on July 23, 2016 (GMT -0500)
olney | | Change Station

Elev 1220 ft 33.37 °N, 98.76 °W | Updated 13 minutes ago

Scattered Clouds
Scattered Clouds
108.9 °F
Feels Like 117 °F
N
2.7
Wind Variable Wind from East

Today
High -- | Low -- °F
--% Chance of Precip.
Yesterday
High -- | Low -- °F
Precip. -- in
Pressure 29.89 in
Visibility 10.0 miles
Clouds Scattered Clouds 8000 ft
Heat Index 117 °F
Dew Point 68 °F
Humidity 27%
Rainfall 0.00 in
Snow Depth Not available.
6:41 AM 8:40 PM
Waning Gibbous, 82% visible
METAR KRPH 232055Z AUTO 14009KT 110V170 10SM SCT080 39/19 A2989 RMK AO2 T03880185
Pressure 29.89 in
Visibility 10.0 miles
Clouds Scattered Clouds 8000 ft
Heat Index 117 °F
Dew Point 68 °F
Humidity 27%
Rainfall 0.00 in
Snow Depth Not available.
6:41 AM 8:40 PM
Waning Gibbous, 82% visible
METAR KRPH 232055Z AUTO 14009KT 110V170 10SM SCT080 39/19 A2989 RMK AO2 T03880185

10-Day Weather Forecast

Almanac

Astronomy

Jul. 23, 2016 Rise Set
Actual Time
Civil Twilight
Nautical Twilight
Astronomical Twilight
Moon
Length of Visible Light
Length of Day
Tomorrow will be .
, % of the Moon is Illuminated

Today's Extremes

State Highs State Lows

Community

WunderPhotos

Upload Photos

1,926,927 photos uploaded!

WunderBlog® & News

Nearby

Air Quality

  Air Quality AQ Index Pollutant
Not available.

Snow Depth

Station Depth Elevation

Earthquake Activity

City Distance Mag. Time & Date
Minimum magnitude displayed is 2.5.

Coastal Water Temperatures

Place Temperature

Stations

Nearby Weather Stations

Station Location Temp. Windchill Dew Point Humidity Wind Precip. Elev Updated Type
                   

Watches & Warnings

There are currently no watches in effect.